WEATHER DATA

YESTERDAY
Time Temp. Dewp. Hum. Bar.
00:06 -0.3 -3.4 77 1026.6
00:16 -0.5 -3.8 76 1026.7
00:26 -0.6 -3.7 77 1026.5
00:36 -0.6 -3.7 77 1026.5
00:46 -0.6 -3.7 77 1026.5
00:56 -0.7 -3.8 77 1026.5
01:06 -0.7 -3.8 77 1026.5
01:16 -0.8 -3.9 77 1026.4
01:26 -0.8 -3.9 77 1026.5
01:36 -0.8 -3.9 77 1026.5
01:46 -0.9 -4.2 76 1026.3
01:57 -1 -4.1 77 1026.4
02:06 -1 -4.1 77 1026.3
02:16 -1.2 -4.2 78 1026.3
02:27 -1.3 -4.1 79 1026.3
02:37 -1.2 -3.9 80 1026.3
02:46 -1.2 -3.7 81 1026.2
02:57 -1.1 -3.6 81 1026.3
03:07 -1.1 -3.5 82 1026.3
03:17 -1.1 -3.3 83 1026.2
03:27 -1 -3.2 83 1026.1
03:37 -1 -3.4 82 1026
03:47 -1 -3.4 82 1026
03:57 -0.9 -3.3 82 1025.9
04:07 -0.9 -3.1 83 1025.8
04:18 -0.9 -3.1 83 1025.9
04:27 -0.8 -3 83 1026
04:37 -0.8 -3 83 1025.9
04:48 -0.8 -3 83 1025.8
04:58 -0.8 -3 83 1025.9
05:08 -0.8 -3 83 1026
05:17 -0.8 -3 83 1025.9
05:28 -0.8 -3 83 1025.9
05:38 -0.8 -3 83 1025.9
05:48 -0.9 -3.1 83 1026
05:58 -0.9 -3.1 83 1025.9
06:08 -0.9 -3.1 83 1025.9
06:18 -1 -3.2 83 1025.9
06:28 -1.1 -3.3 83 1025.9
06:39 -1.1 -3.3 83 1026
06:48 -1.1 -3.3 83 1025.8
06:58 -1.2 -3.4 83 1025.8
07:09 -1.2 -3.4 83 1025.9
07:19 -1.3 -3.5 83 1025.9
07:29 -1.4 -3.6 83 1025.9
07:38 -1.4 -3.6 83 1026.1
07:49 -1.4 -3.6 83 1026.2
07:59 -1.4 -3.8 82 1026.4
08:09 -1.4 -3.8 82 1026.4
08:19 -1.4 -3.8 82 1026.5
08:29 -1.5 -3.7 83 1026.4
08:39 -1.4 -3.6 83 1026.6
08:49 -1.4 -3.6 83 1026.6
09:00 -1.4 -3.6 83 1026.7
09:09 -1.4 -3.6 83 1026.8
09:19 -1.3 -3.5 83 1026.7
09:30 -1.3 -3.5 83 1026.9
09:40 -1.2 -3.4 83 1026.9
09:50 -1.2 -3.4 83 1027
09:59 -1.2 -3.4 83 1026.8
10:10 -1.1 -3.3 83 1026.9
10:20 -1.1 -3.3 83 1027.1
10:40 -0.9 -3.1 83 1027.1
10:50 -0.9 -3.3 82 1027
11:00 -0.9 -3.1 83 1026.9
11:10 -0.7 -3.1 82 1026.9
11:21 -0.7 -3.1 82 1027
11:30 -0.5 -2.7 83 1026.9
11:40 -0.3 -2.5 83 1027
11:51 0 -2.2 83 1027.2
12:01 0.2 -2.2 82 1027.1
12:10 0.5 -1.8 83 1026.4
12:20 1.4 -0.9 84 1026.1
12:31 2.5 -0.2 82 1025.8
12:41 3.6 0.3 79 1025.7
12:51 4.3 0.4 76 1025.8
13:01 5 0.8 74 1025.5
13:11 5.6 0.8 71 1025.7
13:21 6.2 1.1 70 1025.7
13:31 6.9 1.2 67 1025.5
13:42 6.7 0.6 65 1025.4
13:51 7.2 1.5 67 1025.3
14:01 7.7 1.5 65 1025.3
14:11 7.8 0.8 61 1025.5
14:22 7.5 0 59 1025.4
14:31 7.2 0 60 1025.4
14:41 6.8 -0.6 59 1025.4
14:52 6.3 -1 59 1025.3
15:04 5.9 -1.1 60 1025.2
15:14 5.7 -1.5 59 1025.2
15:24 5.6 -1.2 61 1025.2
15:33 5.5 -1.4 60 1025.1
15:44 5.4 -1.7 59 1025
15:54 5.2 -2.1 58 1025.2
16:04 5.1 -2.2 58 1025.1
16:15 5 -2.1 59 1025
16:24 4.9 -2.2 59 1025.3
16:34 4.8 -2 60 1025.3
16:44 4.7 -1.9 61 1025.1
16:55 4.6 -1.8 62 1025.2
17:04 4.4 -1.8 63 1025.4
17:14 4.2 -2 63 1025.4
17:25 4.1 -1.8 64 1025.5
17:35 3.9 -1.8 65 1025.7
17:45 3.7 -2 65 1025.8
17:54 3.6 -1.9 66 1025.9
18:05 3.4 -2.1 66 1025.8
18:15 3.3 -2 67 1025.9
18:25 3.1 -2.1 67 1025.9
18:35 3 -2.2 67 1025.8
18:41 2.9 -2.3 67 1025.9
18:50 2.7 -2.3 68 1025.8
19:00 2.5 -2.5 68 1025.9
19:11 2.3 -2.5 69 1025.8
19:21 2.1 -2.6 69 1025.8
19:31 1.9 -2.6 70 1025.8
19:40 1.7 -2.6 71 1025.8
19:51 1.5 -2.8 71 1025.9
20:01 1.4 -2.9 71 1025.9
20:11 1.1 -3 72 1026
20:21 1 -3.1 72 1025.9
20:31 1 -2.9 73 1025.9
20:41 0.9 -3 73 1025.9
20:51 0.8 -3.1 73 1026
21:02 0.7 -3 74 1025.8
21:11 0.6 -3.1 74 1025.8
21:21 0.5 -3.2 74 1025.7
21:31 0.4 -3.3 74 1025.8
21:42 0.4 -3.3 74 1025.7
21:52 0.3 -3.3 74 1025.7
22:01 0.2 -3.3 75 1025.8
22:12 0.1 -3.4 75 1025.9
22:22 0 -3.4 75 1025.8
22:32 -0.1 -3.5 75 1025.8
22:42 -0.2 -3.6 75 1025.4
22:52 -0.3 -3.7 75 1025.4
23:02 -0.4 -3.7 76 1025.4
23:12 -0.4 -3.7 76 1025.4
23:23 -0.5 -3.8 76 1025.4
23:32 -0.5 -3.8 76 1025.3
23:42 -0.6 -3.9 76 1025.3
23:52 -0.6 -3.9 76 1025.2

DAY STATISTIC

2022-01-26
TEMPERATURE
AVERAGE
1.0
HIGH
7.8
14:11
LOW
-1.5
08:29
PRESSURE
AVERAGE
1026.0
HIGH
1027.2
11:51
LOW
1025.0
15:44
DEWPOINT
AVERAGE
-2.7
HIGH
1.5
13:51
LOW
-4.2
01:46
HUMIDITY
AVERAGE
75
HIGH
84
12:20
LOW
58
15:54
TEMPERATURE (°C)
LOW
-1.5
HIGH
7.8
AVERAGE
1.0
PRESSURE (hpa)
LOW
1025.0
HIGH
1027.2
AVERAGE
1026.0
DEVICE